createdAt,value
2022-08-14T00:02:01.670Z,99498.88
2022-08-14T00:04:32.270Z,99490.94
2022-08-14T00:07:07.029Z,99485.66
2022-08-14T00:09:40.048Z,99497.13
2022-08-14T00:12:33.058Z,99479.69
2022-08-14T00:15:06.619Z,99480.56
2022-08-14T00:17:47.489Z,99479.47
2022-08-14T00:20:24.173Z,99472.50
2022-08-14T00:22:58.774Z,99474.22
2022-08-14T00:25:42.431Z,99476.88
2022-08-14T00:28:15.590Z,99477.88
2022-08-14T00:30:46.381Z,99468.13
2022-08-14T00:33:16.580Z,99475.44
2022-08-14T00:36:36.689Z,99456.88
2022-08-14T00:38:34.727Z,99471.28
2022-08-14T00:41:03.881Z,99464.94
2022-08-14T00:43:33.417Z,99464.09
2022-08-14T00:46:05.333Z,99463.22
2022-08-14T00:48:36.902Z,99447.22
2022-08-14T00:51:08.858Z,99443.97
2022-08-14T00:53:37.094Z,99442.47
2022-08-14T00:56:08.528Z,99446.13
2022-08-14T00:58:45.248Z,99434.53
2022-08-14T01:01:18.731Z,99436.75
2022-08-14T01:03:49.712Z,99407.34
2022-08-14T01:06:21.224Z,99423.44
2022-08-14T01:08:58.192Z,99428.94
2022-08-14T01:11:35.540Z,99417.59
2022-08-14T01:14:25.753Z,99424.56
2022-08-14T01:16:55.569Z,99412.97
2022-08-14T01:19:41.643Z,99406.72
2022-08-14T01:22:13.031Z,99408.06
2022-08-14T01:24:43.527Z,99407.22
2022-08-14T01:27:16.053Z,99409.41
2022-08-14T01:30:26.037Z,99416.88
2022-08-14T01:33:04.100Z,99266.25
2022-08-14T01:36:03.383Z,99169.34
2022-08-14T01:38:38.534Z,99393.63
2022-08-14T01:41:19.688Z,99104.16
2022-08-14T01:44:32.089Z,99424.75
2022-08-14T01:47:21.647Z,99380.31
2022-08-14T01:49:59.490Z,99380.09
2022-08-14T01:52:59.998Z,99141.56
2022-08-14T01:55:35.461Z,99042.41
2022-08-14T01:58:19.746Z,99392.28
2022-08-14T02:01:02.581Z,99282.13
2022-08-14T02:03:34.624Z,99261.53
2022-08-14T02:06:33.228Z,99187.75
2022-08-14T02:08:59.874Z,99344.75
2022-08-14T02:11:37.977Z,99360.88
2022-08-14T02:14:14.198Z,99128.25
2022-08-14T02:16:48.602Z,99274.56
2022-08-14T02:19:19.271Z,99075.16
2022-08-14T02:21:54.617Z,99063.00
2022-08-14T02:24:39.408Z,99148.00
2022-08-14T02:28:22.294Z,99350.63
2022-08-14T02:30:02.399Z,99332.81
2022-08-14T02:32:36.165Z,99326.72
2022-08-14T02:35:10.723Z,99013.53
2022-08-14T02:37:47.473Z,99229.00
2022-08-14T02:40:18.682Z,99118.09
2022-08-14T02:42:54.938Z,99310.50
2022-08-14T02:45:33.201Z,99034.31
2022-08-14T02:48:10.551Z,99228.59
2022-08-14T02:50:56.005Z,99162.59
2022-08-14T02:53:24.216Z,99226.47
2022-08-14T02:55:54.746Z,99192.72
2022-08-14T02:58:30.819Z,99425.75
2022-08-14T03:00:59.429Z,99111.13
2022-08-14T03:03:31.755Z,99336.72
2022-08-14T03:06:04.856Z,99327.00
2022-08-14T03:08:34.295Z,98915.13
2022-08-14T03:11:08.304Z,99215.91
2022-08-14T03:13:39.788Z,98970.34
2022-08-14T03:16:26.543Z,99077.34
2022-08-14T03:18:58.303Z,99073.22
2022-08-14T03:21:28.446Z,99170.19
2022-08-14T03:24:03.138Z,99361.25
2022-08-14T03:26:34.070Z,99114.03
2022-08-14T03:29:06.552Z,99283.53
2022-08-14T03:31:42.428Z,99213.31
2022-08-14T03:34:24.881Z,98978.34
2022-08-14T03:37:51.228Z,99325.16
2022-08-14T03:39:47.695Z,99279.91
2022-08-14T03:42:19.581Z,98888.25
2022-08-14T03:45:27.001Z,99321.44
2022-08-14T03:47:46.535Z,99143.03
2022-08-14T03:50:31.101Z,99232.09
2022-08-14T03:53:02.003Z,99260.97
2022-08-14T03:55:30.812Z,99005.59
2022-08-14T03:58:00.678Z,99084.34
2022-08-14T04:00:43.267Z,99384.84
2022-08-14T04:03:19.640Z,99327.06
2022-08-14T04:05:52.361Z,99039.50
2022-08-14T04:08:29.020Z,99298.69
2022-08-14T04:11:00.941Z,98996.03
2022-08-14T04:13:32.026Z,99020.53
2022-08-14T04:16:04.976Z,99306.53
2022-08-14T04:18:33.883Z,99339.47
2022-08-14T04:21:02.430Z,99303.03
2022-08-14T04:23:33.564Z,99249.13
2022-08-14T04:26:03.080Z,99238.94
2022-08-14T04:29:06.786Z,99309.66
2022-08-14T04:31:24.877Z,99346.34
2022-08-14T04:34:20.612Z,99342.59
2022-08-14T04:37:10.558Z,98934.19
2022-08-14T04:39:57.324Z,99264.81
2022-08-14T04:42:47.373Z,99300.66
2022-08-14T04:45:22.198Z,99149.13
2022-08-14T04:48:10.164Z,98862.16
2022-08-14T04:50:44.720Z,98888.59
2022-08-14T04:53:14.821Z,99393.28
2022-08-14T04:55:46.078Z,99072.34
2022-08-14T04:58:21.706Z,98990.88
2022-08-14T05:01:00.907Z,99215.22
2022-08-14T05:03:32.938Z,99073.63
2022-08-14T05:06:03.351Z,98938.59
2022-08-14T05:08:50.412Z,99147.22
2022-08-14T05:11:20.743Z,99313.69
2022-08-14T05:16:38.300Z,99305.66
2022-08-14T05:19:17.822Z,99108.81
2022-08-14T05:22:00.933Z,99256.81
2022-08-14T05:24:44.203Z,99257.22
2022-08-14T05:27:12.208Z,99173.88
2022-08-14T05:29:40.940Z,99099.31
2022-08-14T05:32:10.533Z,99274.19
2022-08-14T05:34:40.064Z,99194.31
2022-08-14T05:37:15.328Z,99060.44
2022-08-14T05:39:43.936Z,99315.66
2022-08-14T05:42:22.434Z,99313.38
2022-08-14T05:44:55.987Z,99087.53
2022-08-14T05:47:24.432Z,98972.78
2022-08-14T05:49:59.868Z,99223.41
2022-08-14T05:52:38.949Z,99233.00
2022-08-14T05:55:08.533Z,99168.28
2022-08-14T05:57:36.835Z,98777.78
2022-08-14T06:00:05.908Z,99361.56
2022-08-14T06:02:37.562Z,99371.03
2022-08-14T06:05:08.917Z,99001.50
2022-08-14T06:07:44.811Z,99250.53
2022-08-14T06:10:23.185Z,99257.97
2022-08-14T06:13:00.146Z,98919.66
2022-08-14T06:15:30.673Z,99304.53
2022-08-14T06:18:00.771Z,99284.34
2022-08-14T06:20:31.361Z,99157.81
2022-08-14T06:23:02.224Z,99209.03
2022-08-14T06:25:30.273Z,99250.91
2022-08-14T06:28:00.953Z,99216.09
2022-08-14T06:30:45.953Z,98980.44
2022-08-14T06:33:15.716Z,99258.19
2022-08-14T06:35:46.633Z,99232.66
2022-08-14T06:38:17.523Z,98989.31
2022-08-14T06:40:46.479Z,99139.59
2022-08-14T06:43:15.401Z,99120.75
2022-08-14T06:45:48.318Z,99213.56
2022-08-14T06:48:26.363Z,99275.97
2022-08-14T06:50:58.015Z,99174.31
2022-08-14T06:53:27.649Z,99050.75
2022-08-14T06:56:00.602Z,99175.06
2022-08-14T06:58:30.721Z,99250.81
2022-08-14T07:01:19.400Z,99104.94
2022-08-14T07:04:23.169Z,99179.06
2022-08-14T07:06:59.650Z,99094.72
2022-08-14T07:09:43.700Z,99048.84
2022-08-14T07:12:54.152Z,98996.44
2022-08-14T07:15:01.936Z,99158.22
2022-08-14T07:17:31.941Z,99233.84
2022-08-14T07:20:02.603Z,99167.00
2022-08-14T07:22:32.956Z,99088.06
2022-08-14T07:25:19.182Z,99188.75
2022-08-14T07:27:48.135Z,99172.66
2022-08-14T07:30:34.134Z,99025.31
2022-08-14T07:33:03.817Z,99176.63
2022-08-14T07:35:42.884Z,98782.56
2022-08-14T07:38:36.291Z,99257.44
2022-08-14T07:41:31.176Z,99234.97
2022-08-14T07:54:42.981Z,99209.44
2022-08-14T07:57:24.830Z,99203.41
2022-08-14T07:59:53.180Z,99202.72
2022-08-14T08:02:22.437Z,99198.41
2022-08-14T08:04:54.343Z,99199.59
2022-08-14T08:07:24.288Z,99199.63
2022-08-14T08:09:59.635Z,99208.16
2022-08-14T08:12:38.063Z,99198.16
2022-08-14T08:15:08.014Z,99205.03
2022-08-14T08:17:38.653Z,99201.06
2022-08-14T08:20:11.445Z,99201.59
2022-08-14T08:22:43.507Z,99193.09
2022-08-14T08:25:18.881Z,99194.41
2022-08-14T08:27:58.988Z,99194.59
2022-08-14T08:30:27.183Z,99190.22
2022-08-14T08:32:58.292Z,99156.09
2022-08-14T08:35:32.968Z,99187.03
2022-08-14T08:39:15.409Z,99184.59
2022-08-14T08:41:11.069Z,99190.16
2022-08-14T08:43:39.631Z,99192.00
2022-08-14T08:46:18.552Z,99192.06
2022-08-14T08:48:53.772Z,99202.47
2022-08-14T08:51:30.517Z,99188.50
2022-08-14T08:54:00.299Z,99188.59
2022-08-14T08:56:40.441Z,99196.34
2022-08-14T08:59:21.015Z,99198.13
2022-08-14T09:01:56.367Z,99189.53
2022-08-14T09:04:26.444Z,99177.78
2022-08-14T09:07:10.012Z,99171.53
2022-08-14T09:09:53.687Z,99154.59
2022-08-14T09:12:32.547Z,99163.66
2022-08-14T09:15:02.777Z,99162.44
2022-08-14T09:17:30.872Z,99155.28
2022-08-14T09:20:02.207Z,99158.06
2022-08-14T09:22:34.893Z,99163.88
2022-08-14T09:25:06.927Z,99176.66
2022-08-14T09:27:37.623Z,99136.72
2022-08-14T09:30:31.692Z,99166.66
2022-08-14T09:33:12.358Z,99163.56
2022-08-14T09:35:48.572Z,99157.31
2022-08-14T09:38:28.726Z,99151.69
2022-08-14T09:41:00.474Z,99147.22
2022-08-14T09:43:32.364Z,99102.84
2022-08-14T09:46:04.237Z,99142.09
2022-08-14T09:48:32.353Z,99135.31
2022-08-14T09:54:19.207Z,99129.34
2022-08-14T09:56:33.000Z,99123.63
2022-08-14T09:59:12.890Z,99111.41
2022-08-14T10:01:43.703Z,99100.03
2022-08-14T10:04:33.941Z,99096.00
2022-08-14T10:07:05.512Z,99104.63
2022-08-14T10:09:34.995Z,99093.97
2022-08-14T10:12:04.705Z,99093.22
2022-08-14T10:14:36.947Z,99077.56
2022-08-14T10:17:08.654Z,99099.34
2022-08-14T10:19:37.116Z,99088.25
2022-08-14T10:23:22.233Z,99087.97
2022-08-14T10:24:55.285Z,99095.31
2022-08-14T10:27:25.113Z,99082.81
2022-08-14T10:29:58.161Z,99090.06
2022-08-14T10:32:36.397Z,99092.09
2022-08-14T10:35:13.661Z,99082.44
2022-08-14T10:37:44.303Z,99078.09
2022-08-14T10:40:37.697Z,99082.13
2022-08-14T10:43:02.752Z,99044.22
2022-08-14T10:45:35.713Z,99076.56
2022-08-14T10:48:24.473Z,99034.56
2022-08-14T10:51:08.390Z,99026.84
2022-08-14T10:53:39.994Z,99054.81
2022-08-14T10:56:21.831Z,99045.88
2022-08-14T10:59:02.447Z,99047.31
2022-08-14T11:01:41.454Z,99030.50
2022-08-14T11:04:27.649Z,99041.47
2022-08-14T11:06:56.195Z,99037.66
2022-08-14T11:09:26.471Z,99034.44
2022-08-14T11:12:36.702Z,99042.78
2022-08-14T11:14:58.905Z,99034.13
2022-08-14T11:17:31.757Z,99036.19
2022-08-14T11:20:01.345Z,99023.72
2022-08-14T11:23:03.185Z,99010.13
2022-08-14T11:25:19.481Z,99018.81
2022-08-14T11:27:49.125Z,99003.41
2022-08-14T11:30:50.273Z,99016.44
2022-08-14T11:33:09.088Z,99015.75
2022-08-14T11:35:47.463Z,99025.00
2022-08-14T11:38:17.027Z,99020.13
2022-08-14T11:40:47.153Z,99017.28
2022-08-14T11:43:16.286Z,98990.00
2022-08-14T11:45:47.940Z,99005.22
2022-08-14T11:49:04.265Z,98999.78
2022-08-14T11:51:13.878Z,99008.81
2022-08-14T11:53:43.679Z,99007.78
2022-08-14T11:56:13.708Z,98980.97
2022-08-14T11:58:42.380Z,98989.13
2022-08-14T12:01:10.460Z,98983.78
2022-08-14T12:03:51.479Z,98988.16
2022-08-14T12:06:28.866Z,98987.50
2022-08-14T12:09:08.930Z,98992.56
2022-08-14T12:11:46.961Z,98975.41
2022-08-14T12:14:29.810Z,98977.84
2022-08-14T12:17:01.938Z,98974.97
2022-08-14T12:19:33.412Z,98961.69
2022-08-14T12:22:02.989Z,98965.09
2022-08-14T12:24:36.174Z,98970.72
2022-08-14T12:27:05.435Z,98952.19
2022-08-14T12:29:35.093Z,98956.38
2022-08-14T12:32:08.920Z,98930.72
2022-08-14T12:34:40.271Z,98950.31
2022-08-14T12:37:13.200Z,98908.59
2022-08-14T12:39:41.163Z,98943.09
2022-08-14T12:42:11.878Z,98928.47
2022-08-14T12:44:57.662Z,98898.66
2022-08-14T12:47:31.171Z,98904.50
2022-08-14T12:50:00.590Z,98922.81
2022-08-14T12:52:43.053Z,98912.31
2022-08-14T12:55:20.963Z,98905.38
2022-08-14T12:57:53.147Z,98862.91
2022-08-14T13:00:24.293Z,98881.19
2022-08-14T13:02:55.464Z,98884.50
2022-08-14T13:05:27.443Z,98875.44
2022-08-14T13:07:59.287Z,98869.97
2022-08-14T13:10:51.369Z,98876.72
2022-08-14T13:13:17.302Z,98875.47
2022-08-14T13:15:46.382Z,98873.56
2022-08-14T13:18:15.666Z,98875.44
2022-08-14T13:20:49.411Z,98884.41
2022-08-14T13:23:31.769Z,98867.78
2022-08-14T13:26:00.307Z,98847.19
2022-08-14T13:28:33.398Z,98864.41
2022-08-14T13:33:37.223Z,98852.44
2022-08-14T13:36:11.024Z,98865.19
2022-08-14T13:38:51.864Z,98855.69
2022-08-14T13:41:31.848Z,98796.81
2022-08-14T13:44:03.363Z,98844.41
2022-08-14T13:46:31.320Z,98845.50
2022-08-14T13:49:00.108Z,98847.84
2022-08-14T13:51:31.992Z,98847.28
2022-08-14T13:54:10.108Z,98842.50
2022-08-14T13:56:39.813Z,98833.50
2022-08-14T13:59:07.928Z,98819.66
2022-08-14T14:01:42.910Z,98833.34
2022-08-14T14:04:19.229Z,98800.63
2022-08-14T14:06:50.942Z,98811.22
2022-08-14T14:09:32.348Z,98809.56
2022-08-14T14:12:06.376Z,98816.06
2022-08-14T14:14:51.612Z,98810.41
2022-08-14T14:17:24.529Z,98810.81
2022-08-14T14:19:52.479Z,98812.50
2022-08-14T14:22:35.450Z,98805.78
2022-08-14T14:25:14.402Z,98794.88
2022-08-14T14:27:48.966Z,98798.69
2022-08-14T14:30:46.482Z,98795.09
2022-08-14T14:33:44.173Z,98788.16
2022-08-14T14:35:59.417Z,98768.88
2022-08-14T14:38:30.959Z,98782.31
2022-08-14T14:41:01.397Z,98790.50
2022-08-14T14:43:29.596Z,98770.13
2022-08-14T14:45:57.826Z,98788.56
2022-08-14T14:48:27.116Z,98789.81
2022-08-14T14:50:57.037Z,98791.69
2022-08-14T14:53:25.543Z,98776.72
2022-08-14T14:56:47.698Z,98767.00
2022-08-14T14:58:45.910Z,98790.06
2022-08-14T15:01:14.370Z,98782.63
2022-08-14T15:03:43.205Z,98783.81
2022-08-14T15:06:11.056Z,98786.25
2022-08-14T15:08:56.767Z,98781.13
2022-08-14T15:11:30.493Z,98786.28
2022-08-14T15:13:59.966Z,98785.38
2022-08-14T15:16:28.149Z,98785.16
2022-08-14T15:18:56.066Z,98774.41
2022-08-14T15:21:25.574Z,98775.06
2022-08-14T15:23:55.196Z,98780.09
2022-08-14T15:26:31.462Z,98774.47
2022-08-14T15:29:04.919Z,98772.41
2022-08-14T15:31:34.737Z,98762.47
2022-08-14T15:34:43.646Z,98731.84
2022-08-14T15:37:01.507Z,98754.19
2022-08-14T15:39:33.760Z,98754.25
2022-08-14T15:42:14.286Z,98759.50
2022-08-14T15:44:56.789Z,98744.38
2022-08-14T15:47:27.950Z,98731.13
2022-08-14T15:49:59.172Z,98748.13
2022-08-14T15:52:32.482Z,98744.47
2022-08-14T15:55:03.479Z,98745.25
2022-08-14T15:57:32.274Z,98743.56
2022-08-14T16:00:39.991Z,98738.56
2022-08-14T16:03:11.609Z,98729.56
2022-08-14T16:05:39.663Z,98741.50
2022-08-14T16:08:27.263Z,98732.66
2022-08-14T16:10:56.917Z,98733.50
2022-08-14T16:13:39.895Z,98726.56
2022-08-14T16:16:49.741Z,98722.72
2022-08-14T16:19:03.183Z,98726.97
2022-08-14T16:21:31.550Z,98727.53
2022-08-14T16:24:00.654Z,98728.72
2022-08-14T16:26:29.283Z,98730.94
2022-08-14T16:29:02.553Z,98730.44
2022-08-14T16:31:36.323Z,98732.41
2022-08-14T16:34:45.060Z,98740.34
2022-08-14T16:36:53.350Z,98723.94
2022-08-14T16:39:21.235Z,98739.72
2022-08-14T16:41:51.201Z,98735.72
2022-08-14T16:44:23.173Z,98726.25
2022-08-14T16:47:01.668Z,98725.09
2022-08-14T16:50:03.043Z,98721.41
2022-08-14T16:52:25.666Z,98724.78
2022-08-14T16:55:06.894Z,98731.34
2022-08-14T16:57:34.763Z,98727.06
2022-08-14T17:00:07.176Z,98721.16
2022-08-14T17:02:50.311Z,98718.94
2022-08-14T17:05:19.898Z,98722.03
2022-08-14T17:08:28.425Z,98715.59
2022-08-14T17:11:09.760Z,98687.69
2022-08-14T17:13:59.347Z,98693.84
2022-08-14T17:16:26.416Z,98703.03
2022-08-14T17:19:00.943Z,98646.63
2022-08-14T17:21:31.238Z,98700.50
2022-08-14T17:24:00.703Z,98697.22
2022-08-14T17:26:37.085Z,98692.81
2022-08-14T17:29:08.727Z,98700.88
2022-08-14T17:31:58.579Z,98711.28
2022-08-14T17:34:26.128Z,98685.09
2022-08-14T17:37:01.789Z,98699.38
2022-08-14T17:39:40.093Z,98702.84
2022-08-14T17:42:13.298Z,98693.31
2022-08-14T17:44:45.002Z,98701.13
2022-08-14T17:47:14.762Z,98699.16
2022-08-14T17:49:51.971Z,98700.75
2022-08-14T17:52:35.823Z,98702.31
2022-08-14T17:55:04.740Z,98689.09
2022-08-14T17:57:35.217Z,98713.50
2022-08-14T18:00:10.503Z,98702.72
2022-08-14T18:02:41.099Z,98698.88
2022-08-14T18:05:23.394Z,98696.19
2022-08-14T18:08:33.137Z,98708.59
2022-08-14T18:10:55.326Z,98684.88
2022-08-14T18:13:49.998Z,98673.16
2022-08-14T18:16:20.172Z,98698.50
2022-08-14T18:18:49.926Z,98697.53
2022-08-14T18:21:42.153Z,98702.78
2022-08-14T18:24:20.029Z,98695.91
2022-08-14T18:27:01.736Z,98672.84
2022-08-14T18:30:32.090Z,98702.75
2022-08-14T18:32:54.918Z,98673.94
2022-08-14T18:35:24.321Z,98685.06
2022-08-14T18:38:25.618Z,98701.81
2022-08-14T18:40:55.216Z,98700.13
2022-08-14T18:43:43.187Z,98706.75
2022-08-14T18:47:00.158Z,98699.53
2022-08-14T18:49:14.659Z,98699.53
2022-08-14T18:51:45.496Z,98705.16
2022-08-14T18:54:29.698Z,98700.63
2022-08-14T18:57:01.134Z,98700.91
2022-08-14T18:59:30.110Z,98702.63
2022-08-14T19:02:42.545Z,98705.66
2022-08-14T19:05:10.962Z,98706.34
2022-08-14T19:07:40.483Z,98673.88
2022-08-14T19:10:17.088Z,98707.19
2022-08-14T19:13:05.358Z,98693.28
2022-08-14T19:15:42.621Z,98690.59
2022-08-14T19:18:25.944Z,98679.44
2022-08-14T19:20:58.205Z,98713.38
2022-08-14T19:23:40.581Z,98707.47
2022-08-14T19:26:36.707Z,98716.75
2022-08-14T19:29:26.730Z,98713.72
2022-08-14T19:32:06.895Z,98473.47
2022-08-14T19:34:40.478Z,98697.13
2022-08-14T19:37:28.507Z,98712.47
2022-08-14T19:40:15.229Z,98657.63
2022-08-14T19:42:49.437Z,98744.09
2022-08-14T19:45:18.786Z,98710.53
2022-08-14T19:47:49.915Z,98467.53
2022-08-14T19:50:31.176Z,98718.25
2022-08-14T19:53:11.115Z,98771.09
2022-08-14T19:55:45.791Z,98692.63
2022-08-14T19:58:15.261Z,98668.72
2022-08-14T20:00:52.210Z,98438.34
2022-08-14T20:03:24.012Z,98712.47
2022-08-14T20:06:05.774Z,98712.72
2022-08-14T20:11:00.004Z,98654.91
2022-08-14T20:11:44.494Z,98720.63
2022-08-14T20:14:22.974Z,98707.94
2022-08-14T20:17:03.172Z,98713.94
2022-08-14T20:19:37.725Z,98708.34
2022-08-14T20:22:36.675Z,98709.81
2022-08-14T20:25:02.798Z,98700.69
2022-08-14T20:27:39.605Z,98709.91
2022-08-14T20:30:32.863Z,98716.72
2022-08-14T20:33:02.523Z,98693.69
2022-08-14T20:35:35.391Z,98703.59
2022-08-14T20:38:29.052Z,98710.38
2022-08-14T20:40:54.123Z,98709.97
2022-08-14T20:43:40.344Z,98710.97
2022-08-14T20:46:14.443Z,98708.94
2022-08-14T20:48:53.371Z,98699.22
2022-08-14T20:51:24.179Z,98712.38
2022-08-14T20:54:01.646Z,98713.81
2022-08-14T20:56:35.334Z,98716.84
2022-08-14T20:59:17.518Z,98709.06
2022-08-14T21:01:50.144Z,98711.50
2022-08-14T21:04:26.966Z,98706.41
2022-08-14T21:07:33.719Z,98709.41
2022-08-14T21:10:04.776Z,98701.94
2022-08-14T21:12:35.860Z,98700.25
2022-08-14T21:15:11.128Z,98698.00
2022-08-14T21:17:41.490Z,98698.31
2022-08-14T21:20:25.526Z,98699.59
2022-08-14T21:22:56.638Z,98703.44
2022-08-14T21:25:28.163Z,98699.38
2022-08-14T21:28:00.175Z,98690.75
2022-08-14T21:30:51.825Z,98699.69
2022-08-14T21:33:20.540Z,98684.88
2022-08-14T21:35:50.038Z,98695.88
2022-08-14T21:38:34.210Z,98706.09
2022-08-14T21:41:42.271Z,98687.47
2022-08-14T21:44:17.877Z,98700.91
2022-08-14T21:46:50.475Z,98703.19
2022-08-14T21:49:21.012Z,98682.00
2022-08-14T21:52:05.215Z,98682.03
2022-08-14T21:54:49.568Z,98692.91
2022-08-14T21:57:53.438Z,98695.91
2022-08-14T22:00:30.275Z,98683.34
2022-08-14T22:03:01.764Z,98696.34
2022-08-14T22:05:31.285Z,98685.19
2022-08-14T22:07:59.141Z,98676.88
2022-08-14T22:10:30.581Z,98687.06
2022-08-14T22:13:01.574Z,98672.38
2022-08-14T22:15:30.165Z,98561.97
2022-08-14T22:17:58.331Z,98676.88
2022-08-14T22:20:28.279Z,98677.47
2022-08-14T22:22:58.718Z,98670.84
2022-08-14T22:25:33.882Z,98672.13
2022-08-14T22:28:02.422Z,98667.16
2022-08-14T22:30:31.373Z,98666.78
2022-08-14T22:33:00.180Z,98658.41
2022-08-14T22:35:28.280Z,98672.84
2022-08-14T22:38:35.013Z,98653.38
2022-08-14T22:41:09.662Z,98666.50
2022-08-14T22:43:35.239Z,98661.56
2022-08-14T22:46:06.299Z,98656.75
2022-08-14T22:48:45.069Z,98661.41
2022-08-14T22:51:13.728Z,98672.28
2022-08-14T22:53:43.630Z,98662.09
2022-08-14T22:56:20.897Z,98660.53
2022-08-14T22:58:53.536Z,98660.81
2022-08-14T23:01:23.505Z,98635.69
2022-08-14T23:03:52.653Z,98639.75
2022-08-14T23:07:03.076Z,98658.97
2022-08-14T23:09:36.682Z,98659.41
2022-08-14T23:11:58.018Z,98661.34
2022-08-14T23:14:29.749Z,98641.88
2022-08-14T23:16:58.707Z,98659.09
2022-08-14T23:19:33.540Z,98655.69
2022-08-14T23:22:02.080Z,98655.00
2022-08-14T23:24:31.349Z,98646.38
2022-08-14T23:26:59.233Z,98649.06
2022-08-14T23:29:27.241Z,98638.06
2022-08-14T23:31:59.612Z,98649.34
2022-08-14T23:34:29.478Z,98638.34
2022-08-14T23:36:58.216Z,98648.06
2022-08-14T23:39:34.670Z,98647.38
2022-08-14T23:42:05.128Z,98640.28
2022-08-14T23:44:35.225Z,98616.44
2022-08-14T23:47:10.538Z,98628.16
2022-08-14T23:50:01.400Z,98626.59
2022-08-14T23:53:04.077Z,98628.44
2022-08-14T23:55:18.193Z,98622.34
2022-08-14T23:57:57.202Z,98622.75
